createdAt,value
2017-01-30T00:00:00.796Z,85.73
2017-01-30T00:00:29.313Z,85.77
2017-01-30T00:00:57.913Z,85.93
2017-01-30T00:01:26.516Z,85.77
2017-01-30T00:01:55.116Z,85.53
2017-01-30T00:02:23.799Z,86.06
2017-01-30T00:02:52.399Z,85.29
2017-01-30T00:03:20.991Z,85.1
2017-01-30T00:03:49.584Z,85.19
2017-01-30T00:04:18.189Z,85.35
2017-01-30T00:04:46.816Z,85.29
2017-01-30T00:05:15.443Z,85.44
2017-01-30T00:05:44.066Z,85.39
2017-01-30T00:06:12.696Z,85.19
2017-01-30T00:06:41.221Z,85.29
2017-01-30T00:07:10.108Z,85.39
2017-01-30T00:07:38.765Z,85.05
2017-01-30T00:08:07.397Z,85.39
2017-01-30T00:08:36.075Z,85
2017-01-30T00:09:04.662Z,84.95
2017-01-30T00:09:33.295Z,85.68
2017-01-30T00:10:01.918Z,85.39
2017-01-30T00:10:30.543Z,85.58
2017-01-30T00:10:59.063Z,85.48
2017-01-30T00:11:27.728Z,85.29
2017-01-30T00:11:56.356Z,85.97
2017-01-30T00:12:24.958Z,85.29
2017-01-30T00:12:53.593Z,85.29
2017-01-30T00:13:22.233Z,85.48
2017-01-30T00:13:50.866Z,85.39
2017-01-30T00:14:19.386Z,85.29
2017-01-30T00:14:47.996Z,85.19
2017-01-30T00:15:16.586Z,85.39
2017-01-30T00:15:45.216Z,85.39
2017-01-30T00:16:13.839Z,85.25
2017-01-30T00:16:42.455Z,85.25
2017-01-30T00:17:11.097Z,85.58
2017-01-30T00:17:39.630Z,85.39
2017-01-30T00:18:08.241Z,85.48
2017-01-30T00:18:36.883Z,85.48
2017-01-30T00:19:05.506Z,84.77
2017-01-30T00:19:34.032Z,85.19
2017-01-30T00:20:02.717Z,85.19
2017-01-30T00:20:31.238Z,85.1
2017-01-30T00:20:59.842Z,85.15
2017-01-30T00:21:28.493Z,85.48
2017-01-30T00:21:57.215Z,85.39
2017-01-30T00:22:25.853Z,85.29
2017-01-30T00:22:54.378Z,85.29
2017-01-30T00:23:22.917Z,85
2017-01-30T00:23:51.550Z,85.48
2017-01-30T00:24:20.151Z,85.39
2017-01-30T00:24:48.773Z,85.39
2017-01-30T00:25:17.218Z,85.58
2017-01-30T00:25:45.856Z,85.58
2017-01-30T00:26:14.360Z,85.87
2017-01-30T00:26:42.903Z,85.68
2017-01-30T00:27:11.431Z,85.87
2017-01-30T00:27:40.071Z,85.58
2017-01-30T00:28:08.677Z,85.87
2017-01-30T00:28:37.294Z,85.83
2017-01-30T00:29:05.948Z,85.83
2017-01-30T00:29:34.602Z,85.63
2017-01-30T00:30:03.223Z,85.83
2017-01-30T00:30:31.738Z,86.21
2017-01-30T00:31:00.353Z,86.21
2017-01-30T00:31:28.882Z,86.31
2017-01-30T00:31:57.503Z,86.21
2017-01-30T00:32:26.116Z,86.21
2017-01-30T00:32:54.624Z,86.21
2017-01-30T00:33:23.250Z,86.02
2017-01-30T00:33:51.894Z,86.41
2017-01-30T00:34:20.502Z,86.31
2017-01-30T00:34:49.126Z,86.41
2017-01-30T00:35:17.764Z,86.16
2017-01-30T00:35:46.300Z,86.21
2017-01-30T00:36:14.942Z,86.02
2017-01-30T00:36:43.586Z,85.87
2017-01-30T00:37:12.216Z,85.35
2017-01-30T00:37:40.835Z,85.73
2017-01-30T00:38:09.501Z,86.06
2017-01-30T00:38:38.115Z,85.93
2017-01-30T00:39:06.788Z,85.93
2017-01-30T00:39:35.407Z,85.83
2017-01-30T00:40:04.046Z,85.25
2017-01-30T00:40:32.591Z,85.15
2017-01-30T00:41:01.258Z,85.48
2017-01-30T00:41:29.812Z,86.02
2017-01-30T00:41:58.446Z,85.97
2017-01-30T00:42:26.987Z,85.77
2017-01-30T00:42:55.575Z,85.35
2017-01-30T00:43:24.149Z,85.63
2017-01-30T00:43:52.644Z,85.35
2017-01-30T00:44:21.209Z,85.05
2017-01-30T00:44:49.846Z,85.44
2017-01-30T00:45:18.410Z,85.58
2017-01-30T00:45:47.029Z,85.93
2017-01-30T00:46:15.526Z,85.97
2017-01-30T00:46:44.141Z,85.44
2017-01-30T00:47:12.764Z,85.97
2017-01-30T00:47:41.341Z,85.68
2017-01-30T00:48:09.868Z,85.73
2017-01-30T00:48:38.376Z,85.63
2017-01-30T00:49:07.036Z,86.02
2017-01-30T00:49:35.536Z,85.48
2017-01-30T00:50:04.130Z,85.77
2017-01-30T00:50:32.769Z,85.63
2017-01-30T00:51:01.409Z,85.93
2017-01-30T00:51:30.026Z,85.93
2017-01-30T00:51:58.638Z,85.53
2017-01-30T00:52:27.273Z,85.68
2017-01-30T00:52:55.896Z,86.21
2017-01-30T00:53:24.519Z,85.53
2017-01-30T00:53:53.119Z,85.83
2017-01-30T00:54:21.730Z,86.21
2017-01-30T00:54:50.229Z,86.21
2017-01-30T00:55:18.774Z,86.6
2017-01-30T00:55:47.380Z,86.06
2017-01-30T00:56:15.992Z,86.69
2017-01-30T00:56:44.607Z,86.6
2017-01-30T00:57:13.170Z,86.65
2017-01-30T00:57:41.790Z,86.6
2017-01-30T00:58:10.425Z,86.65
2017-01-30T00:58:39.035Z,86.35
2017-01-30T00:59:07.649Z,86.74
2017-01-30T00:59:36.108Z,86.35
2017-01-30T01:00:04.746Z,85.77
2017-01-30T01:00:33.382Z,85.87
2017-01-30T01:01:01.979Z,86.06
2017-01-30T01:01:30.622Z,85.87
2017-01-30T01:01:59.234Z,85.97
2017-01-30T01:02:27.750Z,85.39
2017-01-30T01:02:56.360Z,85.19
2017-01-30T01:03:25.001Z,85.19
2017-01-30T01:03:53.523Z,85.48
2017-01-30T01:04:22.062Z,85.19
2017-01-30T01:04:50.692Z,85.48
2017-01-30T01:05:19.209Z,85.97
2017-01-30T01:05:47.817Z,85.68
2017-01-30T01:06:16.505Z,85.48
2017-01-30T01:06:45.132Z,85.77
2017-01-30T01:07:13.738Z,85.77
2017-01-30T01:07:42.255Z,85.87
2017-01-30T01:08:10.797Z,85.48
2017-01-30T01:08:39.433Z,85.87
2017-01-30T01:09:07.975Z,85.58
2017-01-30T01:09:36.421Z,85.87
2017-01-30T01:10:04.964Z,85.58
2017-01-30T01:10:33.589Z,85.68
2017-01-30T01:11:02.211Z,85.39
2017-01-30T01:11:30.734Z,85.29
2017-01-30T01:11:59.354Z,85
2017-01-30T01:12:27.967Z,85
2017-01-30T01:12:56.575Z,84.71
2017-01-30T01:13:25.193Z,85.58
2017-01-30T01:13:53.813Z,85.19
2017-01-30T01:14:22.426Z,85.39
2017-01-30T01:14:51.054Z,85.97
2017-01-30T01:15:19.578Z,86.06
2017-01-30T01:15:48.204Z,85.87
2017-01-30T01:16:16.746Z,85.58
2017-01-30T01:16:45.370Z,86.06
2017-01-30T01:17:13.992Z,86.06
2017-01-30T01:17:42.606Z,85.87
2017-01-30T01:18:11.207Z,86.06
2017-01-30T01:18:39.828Z,85.48
2017-01-30T01:19:08.458Z,85.39
2017-01-30T01:19:37.084Z,85.87
2017-01-30T01:20:05.689Z,85.29
2017-01-30T01:20:34.304Z,85.58
2017-01-30T01:21:02.929Z,85.29
2017-01-30T01:21:31.445Z,85.39
2017-01-30T01:22:00.226Z,85.39
2017-01-30T01:22:28.696Z,85.39
2017-01-30T01:22:57.330Z,84.9
2017-01-30T01:23:25.943Z,84.9
2017-01-30T01:23:54.589Z,85.1
2017-01-30T01:24:23.108Z,84.75
2017-01-30T01:24:51.743Z,84.94
2017-01-30T01:25:20.340Z,84.9
2017-01-30T01:25:48.862Z,84.66
2017-01-30T01:26:17.362Z,84.27
2017-01-30T01:26:45.952Z,84.71
2017-01-30T01:27:14.549Z,85.14
2017-01-30T01:27:43.163Z,84.9
2017-01-30T01:28:11.776Z,85.04
2017-01-30T01:28:40.390Z,84.8
2017-01-30T01:29:09.018Z,84.71
2017-01-30T01:29:37.560Z,84.42
2017-01-30T01:30:06.094Z,84.13
2017-01-30T01:30:34.682Z,84.22
2017-01-30T01:31:03.233Z,84.71
2017-01-30T01:31:31.826Z,84.13
2017-01-30T01:32:00.364Z,83.94
2017-01-30T01:32:28.965Z,84.52
2017-01-30T01:32:57.571Z,85.19
2017-01-30T01:33:26.135Z,85.58
2017-01-30T01:33:54.725Z,85.1
2017-01-30T01:34:23.180Z,85.87
2017-01-30T01:34:51.802Z,84.9
2017-01-30T01:35:20.311Z,85.29
2017-01-30T01:35:48.945Z,85.39
2017-01-30T01:36:17.501Z,85.19
2017-01-30T01:36:46.121Z,85.19
2017-01-30T01:37:14.754Z,85.48
2017-01-30T01:37:43.299Z,85.39
2017-01-30T01:38:11.927Z,85.29
2017-01-30T01:38:40.516Z,85
2017-01-30T01:39:09.096Z,85.48
2017-01-30T01:39:37.703Z,85.39
2017-01-30T01:40:06.334Z,85.53
2017-01-30T01:40:34.844Z,86.21
2017-01-30T01:41:03.470Z,86.31
2017-01-30T01:41:32.073Z,86.41
2017-01-30T01:42:00.614Z,86.31
2017-01-30T01:42:29.241Z,86.31
2017-01-30T01:42:57.892Z,86.02
2017-01-30T01:43:26.505Z,86.41
2017-01-30T01:43:55.138Z,86.41
2017-01-30T01:44:23.792Z,86.31
2017-01-30T01:44:52.323Z,86.02
2017-01-30T01:45:20.951Z,86.41
2017-01-30T01:45:49.489Z,86.31
2017-01-30T01:46:18.094Z,86.21
2017-01-30T01:46:46.728Z,86.51
2017-01-30T01:47:15.354Z,86.21
2017-01-30T01:47:43.880Z,86.69
2017-01-30T01:48:12.318Z,86.51
2017-01-30T01:48:40.969Z,86.6
2017-01-30T01:49:09.537Z,86.11
2017-01-30T01:49:38.144Z,86.31
2017-01-30T01:50:06.850Z,86.51
2017-01-30T01:50:35.371Z,86.02
2017-01-30T01:51:03.988Z,86.41
2017-01-30T01:51:32.619Z,86.02
2017-01-30T01:52:01.171Z,86.31
2017-01-30T01:52:29.816Z,86.51
2017-01-30T01:52:58.416Z,86.41
2017-01-30T01:53:27.034Z,86.6
2017-01-30T01:53:55.630Z,86.41
2017-01-30T01:54:24.241Z,86.69
2017-01-30T01:54:52.853Z,86.41
2017-01-30T01:55:21.486Z,86.46
2017-01-30T01:55:50.095Z,86.41
2017-01-30T01:56:18.628Z,86.99
2017-01-30T01:56:47.228Z,86.85
2017-01-30T01:57:15.841Z,87.66
2017-01-30T01:57:44.472Z,87.13
2017-01-30T01:58:13.084Z,87.18
2017-01-30T01:58:41.715Z,87.47
2017-01-30T01:59:10.366Z,87.47
2017-01-30T01:59:38.923Z,87.52
2017-01-30T02:00:07.549Z,86.75
2017-01-30T02:00:36.140Z,87.13
2017-01-30T02:01:04.756Z,86.85
2017-01-30T02:01:33.266Z,87.13
2017-01-30T02:02:01.916Z,87.18
2017-01-30T02:02:30.441Z,86.85
2017-01-30T02:02:59.077Z,87.08
2017-01-30T02:03:27.670Z,87.66
2017-01-30T02:03:56.269Z,87.37
2017-01-30T02:04:24.905Z,87.37
2017-01-30T02:04:53.559Z,87.47
2017-01-30T02:05:22.192Z,87.37
2017-01-30T02:05:50.744Z,87.57
2017-01-30T02:06:19.365Z,87.33
2017-01-30T02:06:47.991Z,87.23
2017-01-30T02:07:16.635Z,87.57
2017-01-30T02:07:45.246Z,87.37
2017-01-30T02:08:13.857Z,87.33
2017-01-30T02:08:42.367Z,87.37
2017-01-30T02:09:10.902Z,87.27
2017-01-30T02:09:39.434Z,87.52
2017-01-30T02:10:08.028Z,87.76
2017-01-30T02:10:36.663Z,87.33
2017-01-30T02:11:05.273Z,87.33
2017-01-30T02:11:33.885Z,87.71
2017-01-30T02:12:02.503Z,88.01
2017-01-30T02:12:31.025Z,87.85
2017-01-30T02:12:59.640Z,87.95
2017-01-30T02:13:28.254Z,87.91
2017-01-30T02:13:56.849Z,87.71
2017-01-30T02:14:25.319Z,87.76
2017-01-30T02:14:53.955Z,88.05
2017-01-30T02:15:22.568Z,87.81
2017-01-30T02:15:51.194Z,87.91
2017-01-30T02:16:19.812Z,88.29
2017-01-30T02:16:48.426Z,88.43
2017-01-30T02:17:16.942Z,88.39
2017-01-30T02:17:45.554Z,88.39
2017-01-30T02:18:14.190Z,88.15
2017-01-30T02:18:42.717Z,88.59
2017-01-30T02:19:11.344Z,88.39
2017-01-30T02:19:39.904Z,88.59
2017-01-30T02:20:08.462Z,88.49
2017-01-30T02:20:37.101Z,88.49
2017-01-30T02:21:05.721Z,88.49
2017-01-30T02:21:34.318Z,88.29
2017-01-30T02:22:02.930Z,88.59
2017-01-30T02:22:31.552Z,88.2
2017-01-30T02:23:00.169Z,88.49
2017-01-30T02:23:28.775Z,88.1
2017-01-30T02:23:57.416Z,88.59
2017-01-30T02:24:26.022Z,88.29
2017-01-30T02:24:54.626Z,88.59
2017-01-30T02:25:23.265Z,88.49
2017-01-30T02:25:51.796Z,88.1
2017-01-30T02:26:20.337Z,88.2
2017-01-30T02:26:49.299Z,88.78
2017-01-30T02:27:17.879Z,88.59
2017-01-30T02:27:46.496Z,88.78
2017-01-30T02:28:15.100Z,88.78
2017-01-30T02:28:43.614Z,88.59
2017-01-30T02:29:12.209Z,88.68
2017-01-30T02:29:40.822Z,88.68
2017-01-30T02:30:09.449Z,88.78
2017-01-30T02:30:38.010Z,88.59
2017-01-30T02:31:06.637Z,88.39
2017-01-30T02:31:35.184Z,88.59
2017-01-30T02:32:03.784Z,88.59
2017-01-30T02:32:32.373Z,88.78
2017-01-30T02:33:00.986Z,89.36
2017-01-30T02:33:29.504Z,88.97
2017-01-30T02:33:58.137Z,89.26
2017-01-30T02:34:26.754Z,89.07
2017-01-30T02:34:55.173Z,89.07
2017-01-30T02:35:23.720Z,89.17
2017-01-30T02:35:52.322Z,89.17
2017-01-30T02:36:20.933Z,89.17
2017-01-30T02:36:49.534Z,89.07
2017-01-30T02:37:18.151Z,89.55
2017-01-30T02:37:46.766Z,89.26
2017-01-30T02:38:15.391Z,89.17
2017-01-30T02:38:43.949Z,89.07
2017-01-30T02:39:12.570Z,89.65
2017-01-30T02:39:41.197Z,89.45
2017-01-30T02:40:09.710Z,89.65
2017-01-30T02:40:38.330Z,89.65
2017-01-30T02:41:06.991Z,89.65
2017-01-30T02:41:35.512Z,89.65
2017-01-30T02:42:04.129Z,89.55
2017-01-30T02:42:32.720Z,89.75
2017-01-30T02:43:01.243Z,90.13
2017-01-30T02:43:29.831Z,90.33
2017-01-30T02:43:58.449Z,90.03
2017-01-30T02:44:27.074Z,89.84
2017-01-30T02:44:55.693Z,90.42
2017-01-30T02:45:24.315Z,89.84
2017-01-30T02:45:52.919Z,90.33
2017-01-30T02:46:21.550Z,90.13
2017-01-30T02:46:50.168Z,90.42
2017-01-30T02:47:18.796Z,90.13
2017-01-30T02:47:47.426Z,90.33
2017-01-30T02:48:16.047Z,90.23
2017-01-30T02:48:44.696Z,90.42
2017-01-30T02:49:13.301Z,90.13
2017-01-30T02:49:41.835Z,89.84
2017-01-30T02:50:10.433Z,90.42
2017-01-30T02:50:39.041Z,90.33
2017-01-30T02:51:07.571Z,90.13
2017-01-30T02:51:36.209Z,90.13
2017-01-30T02:52:04.747Z,90.13
2017-01-30T02:52:33.367Z,90.13
2017-01-30T02:53:01.989Z,90.42
2017-01-30T02:53:30.600Z,90.33
2017-01-30T02:53:59.211Z,90.42
2017-01-30T02:54:27.755Z,90.03
2017-01-30T02:54:56.384Z,90.03
2017-01-30T02:55:25.000Z,90.33
2017-01-30T02:55:53.617Z,90.71
2017-01-30T02:56:22.256Z,90.81
2017-01-30T02:56:50.873Z,91
2017-01-30T02:57:19.498Z,90.91
2017-01-30T02:57:48.095Z,90.57
2017-01-30T02:58:16.642Z,90.42
2017-01-30T02:58:45.281Z,90.33
2017-01-30T02:59:13.866Z,90.61
2017-01-30T02:59:42.384Z,90.61
2017-01-30T03:00:11.009Z,90.71
2017-01-30T03:00:39.651Z,90.47
2017-01-30T03:01:09.144Z,90.57
2017-01-30T03:01:37.825Z,90.61
2017-01-30T03:02:06.475Z,90.77
2017-01-30T03:02:34.933Z,90.61
2017-01-30T03:03:03.528Z,90.61
2017-01-30T03:03:32.158Z,90.81
2017-01-30T03:04:00.790Z,90.61
2017-01-30T03:04:29.391Z,90.57
2017-01-30T03:04:58.040Z,90.57
2017-01-30T03:05:26.686Z,90.81
2017-01-30T03:05:55.304Z,90.71
2017-01-30T03:06:23.938Z,90.57
2017-01-30T03:06:52.557Z,90.91
2017-01-30T03:07:21.210Z,90.57
2017-01-30T03:07:49.767Z,90.61
2017-01-30T03:08:18.206Z,90.67
2017-01-30T03:08:46.831Z,90.71
2017-01-30T03:09:15.454Z,90.77
2017-01-30T03:09:44.064Z,90.57
2017-01-30T03:10:12.654Z,90.47
2017-01-30T03:10:41.198Z,90.67
2017-01-30T03:11:09.837Z,90.37
2017-01-30T03:11:38.403Z,90.47
2017-01-30T03:12:07.014Z,90.91
2017-01-30T03:12:35.656Z,90.67
2017-01-30T03:13:04.298Z,90.91
2017-01-30T03:13:32.937Z,91
2017-01-30T03:14:01.578Z,91.15
2017-01-30T03:14:30.091Z,90.95
2017-01-30T03:14:58.590Z,90.95
2017-01-30T03:15:27.222Z,91.67
2017-01-30T03:15:55.842Z,90.86
2017-01-30T03:16:24.466Z,91.35
2017-01-30T03:16:53.128Z,91.35
2017-01-30T03:17:21.758Z,91.58
2017-01-30T03:17:50.352Z,91.44
2017-01-30T03:18:18.886Z,91.25
2017-01-30T03:18:47.516Z,91.63
2017-01-30T03:19:16.060Z,90.91
2017-01-30T03:19:44.660Z,90.61
2017-01-30T03:20:13.270Z,90.61
2017-01-30T03:20:41.889Z,90.71
2017-01-30T03:21:10.538Z,90.71
2017-01-30T03:21:39.124Z,90.52
2017-01-30T03:22:07.742Z,90.52
2017-01-30T03:22:36.252Z,90.71
2017-01-30T03:23:04.758Z,90.81
2017-01-30T03:23:33.351Z,91
2017-01-30T03:24:01.976Z,90.71
2017-01-30T03:24:30.569Z,90.42
2017-01-30T03:24:59.165Z,90.91
2017-01-30T03:25:27.769Z,91
2017-01-30T03:25:56.380Z,90.52
2017-01-30T03:26:24.793Z,90.81
2017-01-30T03:26:53.435Z,90.91
2017-01-30T03:27:22.028Z,90.71
2017-01-30T03:27:50.673Z,90.81
2017-01-30T03:28:19.158Z,90.71
2017-01-30T03:28:47.779Z,91.29
2017-01-30T03:29:16.302Z,90.91
2017-01-30T03:29:44.935Z,91
2017-01-30T03:30:13.449Z,91.39
2017-01-30T03:30:42.032Z,91.19
2017-01-30T03:31:10.564Z,91.49
2017-01-30T03:31:39.078Z,91.15
2017-01-30T03:32:07.730Z,91.29
2017-01-30T03:32:36.346Z,91.29
2017-01-30T03:33:04.866Z,91.49
2017-01-30T03:33:33.500Z,91.49
2017-01-30T03:34:02.122Z,91.19
2017-01-30T03:34:30.743Z,91.39
2017-01-30T03:34:59.362Z,91.53
2017-01-30T03:35:27.960Z,91.19
2017-01-30T03:35:56.594Z,91.44
2017-01-30T03:36:25.142Z,91.39
2017-01-30T03:36:53.754Z,91.49
2017-01-30T03:37:22.369Z,91.39
2017-01-30T03:37:51.005Z,91.49
2017-01-30T03:38:19.442Z,91.58
2017-01-30T03:38:48.053Z,91.67
2017-01-30T03:39:16.688Z,92.07
2017-01-30T03:39:45.319Z,92.07
2017-01-30T03:40:13.930Z,91.97
2017-01-30T03:40:42.525Z,91.39
2017-01-30T03:41:11.158Z,91.97
2017-01-30T03:41:39.750Z,91.35
2017-01-30T03:42:08.369Z,91.83
2017-01-30T03:42:36.892Z,91.53
2017-01-30T03:43:05.504Z,91.63
2017-01-30T03:43:34.030Z,91
2017-01-30T03:44:02.661Z,91.05
2017-01-30T03:44:31.279Z,91.19
2017-01-30T03:44:59.921Z,91.09
2017-01-30T03:45:28.541Z,91.19
2017-01-30T03:45:57.167Z,91.19
2017-01-30T03:46:25.797Z,91.49
2017-01-30T03:46:54.412Z,91.29
2017-01-30T03:47:22.932Z,91.49
2017-01-30T03:47:51.532Z,91.49
2017-01-30T03:48:20.051Z,91.09
2017-01-30T03:48:48.677Z,91.09
2017-01-30T03:49:19.959Z,91.29
2017-01-30T03:49:49.058Z,91.39
2017-01-30T03:50:17.667Z,91.05
2017-01-30T03:50:46.296Z,91.35
2017-01-30T03:51:14.923Z,91.19
2017-01-30T03:51:43.704Z,91.35
2017-01-30T03:52:12.301Z,91.58
2017-01-30T03:52:40.945Z,91.44
2017-01-30T03:53:09.564Z,91.09
2017-01-30T03:53:38.210Z,91.35
2017-01-30T03:54:06.814Z,91.39
2017-01-30T03:54:35.444Z,91.35
2017-01-30T03:55:04.080Z,91.49
2017-01-30T03:55:32.705Z,91.39
2017-01-30T03:56:01.335Z,91.29
2017-01-30T03:56:29.848Z,91.49
2017-01-30T03:56:58.473Z,91.39
2017-01-30T03:57:27.097Z,91.87
2017-01-30T03:57:55.610Z,91.67
2017-01-30T03:58:24.036Z,91.58
2017-01-30T03:58:52.675Z,92.07
2017-01-30T03:59:21.292Z,92.02
2017-01-30T03:59:49.932Z,92.31
2017-01-30T04:00:18.447Z,92.21
2017-01-30T04:00:47.091Z,92.55
2017-01-30T04:01:15.716Z,92.21
2017-01-30T04:01:44.305Z,92.21
2017-01-30T04:02:12.903Z,92.16
2017-01-30T04:02:41.511Z,92.25
2017-01-30T04:03:10.045Z,92.16
2017-01-30T04:03:38.641Z,92.25
2017-01-30T04:04:07.252Z,92.02
2017-01-30T04:04:35.674Z,92.11
2017-01-30T04:05:04.267Z,91.92
2017-01-30T04:05:32.883Z,92.21
2017-01-30T04:06:01.513Z,91.92
2017-01-30T04:06:30.250Z,92.07
2017-01-30T04:06:58.857Z,92.02
2017-01-30T04:07:27.513Z,91.87
2017-01-30T04:07:56.118Z,92.02
2017-01-30T04:08:24.638Z,91.92
2017-01-30T04:08:53.258Z,92.02
2017-01-30T04:09:21.886Z,92.31
2017-01-30T04:09:50.521Z,92.21
2017-01-30T04:10:18.948Z,92.02
2017-01-30T04:10:47.591Z,92.41
2017-01-30T04:11:16.197Z,91.92
2017-01-30T04:11:44.796Z,92.41
2017-01-30T04:12:13.319Z,92.5
2017-01-30T04:12:41.928Z,92.11
2017-01-30T04:13:10.593Z,92.31
2017-01-30T04:13:39.236Z,92.41
2017-01-30T04:14:07.853Z,92.31
2017-01-30T04:14:36.371Z,92.41
2017-01-30T04:15:05.039Z,92.11
2017-01-30T04:15:38.752Z,92.5
2017-01-30T04:16:08.506Z,92.5
2017-01-30T04:16:37.040Z,92.89
2017-01-30T04:17:05.627Z,92.6
2017-01-30T04:17:34.273Z,92.69
2017-01-30T04:18:02.904Z,92.5
2017-01-30T04:18:31.522Z,92.69
2017-01-30T04:19:00.158Z,92.69
2017-01-30T04:19:28.772Z,92.89
2017-01-30T04:19:59.968Z,92.41
2017-01-30T04:20:28.582Z,92.6
2017-01-30T04:20:57.178Z,93.37
2017-01-30T04:21:25.740Z,93.18
2017-01-30T04:21:54.252Z,93.37
2017-01-30T04:22:22.894Z,93.08
2017-01-30T04:22:51.503Z,93.18
2017-01-30T04:23:20.137Z,92.89
2017-01-30T04:23:48.761Z,92.98
2017-01-30T04:24:17.380Z,93.56
2017-01-30T04:24:46.012Z,93.56
2017-01-30T04:25:14.622Z,93.37
2017-01-30T04:25:43.258Z,93.56
2017-01-30T04:26:11.890Z,93.56
2017-01-30T04:26:40.629Z,93.27
2017-01-30T04:27:09.274Z,93.47
2017-01-30T04:27:37.874Z,93.37
2017-01-30T04:28:06.521Z,93.95
2017-01-30T04:28:35.152Z,93.85
2017-01-30T04:29:03.813Z,94.29
2017-01-30T04:29:32.418Z,94.24
2017-01-30T04:30:01.041Z,94.14
2017-01-30T04:30:29.595Z,94.14
2017-01-30T04:30:58.179Z,94.34
2017-01-30T04:31:26.790Z,94.04
2017-01-30T04:31:55.395Z,93.85
2017-01-30T04:32:23.917Z,94.34
2017-01-30T04:32:52.540Z,93.85
2017-01-30T04:33:21.195Z,93.66
2017-01-30T04:33:49.840Z,94.04
2017-01-30T04:34:18.372Z,94.14
2017-01-30T04:34:47.003Z,94.43
2017-01-30T04:35:15.621Z,94.04
2017-01-30T04:35:44.212Z,93.95
2017-01-30T04:36:12.815Z,93.76
2017-01-30T04:36:41.571Z,93.95
2017-01-30T04:37:10.448Z,93.76
2017-01-30T04:37:39.054Z,93.85
2017-01-30T04:38:07.684Z,93.95
2017-01-30T04:38:36.304Z,94.14
2017-01-30T04:39:04.932Z,94.24
2017-01-30T04:39:33.560Z,93.95
2017-01-30T04:40:02.223Z,93.66
2017-01-30T04:40:30.739Z,93.85
2017-01-30T04:40:59.351Z,93.66
2017-01-30T04:41:27.909Z,93.85
2017-01-30T04:41:56.543Z,93.66
2017-01-30T04:42:25.173Z,94.72
2017-01-30T04:42:53.786Z,94.62
2017-01-30T04:43:22.310Z,94.53
2017-01-30T04:43:50.925Z,94.72
2017-01-30T04:44:19.544Z,93.85
2017-01-30T04:44:49.316Z,94.53
2017-01-30T04:45:18.657Z,94.43
2017-01-30T04:45:47.278Z,94.43
2017-01-30T04:46:15.895Z,94.53
2017-01-30T04:46:44.622Z,94.62
2017-01-30T04:47:13.252Z,94.34
2017-01-30T04:47:41.906Z,93.95
2017-01-30T04:48:10.515Z,93.76
2017-01-30T04:48:39.144Z,94.04
2017-01-30T04:49:07.755Z,93.85
2017-01-30T04:49:36.303Z,94.14
2017-01-30T04:50:04.946Z,93.76
2017-01-30T04:50:33.571Z,94.14
2017-01-30T04:51:02.173Z,93.37
2017-01-30T04:51:30.945Z,93.37
2017-01-30T04:51:59.563Z,93.37
2017-01-30T04:52:28.217Z,93.56
2017-01-30T04:52:56.896Z,93.76
2017-01-30T04:53:25.519Z,93.37
2017-01-30T04:53:54.156Z,93.85
2017-01-30T04:54:22.782Z,93.95
2017-01-30T04:54:51.395Z,93.76
2017-01-30T04:55:20.072Z,93.47
2017-01-30T04:55:48.694Z,93.27
2017-01-30T04:56:17.294Z,93.37
2017-01-30T04:56:45.903Z,93.95
2017-01-30T04:57:14.548Z,93.95
2017-01-30T04:57:43.117Z,94.14
2017-01-30T04:58:11.752Z,94.34
2017-01-30T04:58:40.363Z,94.62
2017-01-30T04:59:08.985Z,94.43
2017-01-30T04:59:37.625Z,94.1
2017-01-30T05:00:06.241Z,94.34
2017-01-30T05:00:34.865Z,94.53
2017-01-30T05:01:03.488Z,94.53
2017-01-30T05:01:32.118Z,94.82
2017-01-30T05:02:00.720Z,94.82
2017-01-30T05:02:29.166Z,94.53
2017-01-30T05:02:57.775Z,94.72
2017-01-30T05:03:26.404Z,94.62
2017-01-30T05:03:54.955Z,95.01
2017-01-30T05:04:23.481Z,94.92
2017-01-30T05:04:52.114Z,94.92
2017-01-30T05:05:20.736Z,95.5
2017-01-30T05:05:49.352Z,94.62
2017-01-30T05:06:17.977Z,95.01
2017-01-30T05:06:46.392Z,94.43
2017-01-30T05:07:14.999Z,94.82
2017-01-30T05:07:43.589Z,94.72
2017-01-30T05:08:12.219Z,95.01
2017-01-30T05:08:40.811Z,94.53
2017-01-30T05:09:09.340Z,94.62
2017-01-30T05:09:37.929Z,94.82
2017-01-30T05:10:06.543Z,95.2
2017-01-30T05:10:35.160Z,94.92
2017-01-30T05:11:03.767Z,95.3
2017-01-30T05:11:32.380Z,95.2
2017-01-30T05:12:00.897Z,95.11
2017-01-30T05:12:29.547Z,94.96
2017-01-30T05:12:58.173Z,95.5
2017-01-30T05:13:26.782Z,95.4
2017-01-30T05:13:55.387Z,95.3
2017-01-30T05:14:23.884Z,95.01
2017-01-30T05:14:52.538Z,95.35
2017-01-30T05:15:21.132Z,95.2
2017-01-30T05:15:49.746Z,95.2
2017-01-30T05:16:18.268Z,95.2
2017-01-30T05:16:46.883Z,95.11
2017-01-30T05:17:15.507Z,95.11
2017-01-30T05:17:44.177Z,95.2
2017-01-30T05:18:12.595Z,95.01
2017-01-30T05:18:41.130Z,95.11
2017-01-30T05:19:09.751Z,95.16
2017-01-30T05:19:38.338Z,95.3
2017-01-30T05:20:06.934Z,95.11
2017-01-30T05:20:35.556Z,94.92
2017-01-30T05:21:04.159Z,95.2
2017-01-30T05:21:32.881Z,95.3
2017-01-30T05:22:01.495Z,95.3
2017-01-30T05:22:30.094Z,94.96
2017-01-30T05:22:58.694Z,95.3
2017-01-30T05:23:27.312Z,95.2
2017-01-30T05:23:55.912Z,95.01
2017-01-30T05:24:24.460Z,94.53
2017-01-30T05:24:53.056Z,94.53
2017-01-30T05:25:21.675Z,94.82
2017-01-30T05:25:50.312Z,94.92
2017-01-30T05:26:18.819Z,94.53
2017-01-30T05:26:47.429Z,94.43
2017-01-30T05:27:16.080Z,94.72
2017-01-30T05:27:44.710Z,94.58
2017-01-30T05:28:13.323Z,95.01
2017-01-30T05:28:41.929Z,94.62
2017-01-30T05:29:10.531Z,94.96
2017-01-30T05:29:39.172Z,95.01
2017-01-30T05:30:07.787Z,95.16
2017-01-30T05:30:36.298Z,94.82
2017-01-30T05:31:04.896Z,94.82
2017-01-30T05:31:33.430Z,95.2
2017-01-30T05:32:02.020Z,94.82
2017-01-30T05:32:30.673Z,94.92
2017-01-30T05:32:59.283Z,95.01
2017-01-30T05:33:27.811Z,95.01
2017-01-30T05:33:56.408Z,94.87
2017-01-30T05:34:25.044Z,95.11
2017-01-30T05:34:53.693Z,95.3
2017-01-30T05:35:22.337Z,95.5
2017-01-30T05:35:50.968Z,95.68
2017-01-30T05:36:19.419Z,95.5
2017-01-30T05:36:48.019Z,95.35
2017-01-30T05:37:16.650Z,95.88
2017-01-30T05:37:45.254Z,95.78
2017-01-30T05:38:13.764Z,95.78
2017-01-30T05:38:42.290Z,95.78
2017-01-30T05:39:10.921Z,95.98
2017-01-30T05:39:39.540Z,95.88
2017-01-30T05:40:08.189Z,95.59
2017-01-30T05:40:36.729Z,95.88
2017-01-30T05:41:05.341Z,95.5
2017-01-30T05:41:34.370Z,95.68
2017-01-30T05:42:02.957Z,95.68
2017-01-30T05:42:31.622Z,95.88
2017-01-30T05:43:00.224Z,95.59
2017-01-30T05:43:28.743Z,95.88
2017-01-30T05:43:57.367Z,95.88
2017-01-30T05:44:25.978Z,95.78
2017-01-30T05:44:54.637Z,95.59
2017-01-30T05:45:23.149Z,95.4
2017-01-30T05:45:51.764Z,95.5
2017-01-30T05:46:20.395Z,95.78
2017-01-30T05:46:49.029Z,95.5
2017-01-30T05:47:17.654Z,95.59
2017-01-30T05:47:46.294Z,95.68
2017-01-30T05:48:14.818Z,95.59
2017-01-30T05:48:43.409Z,95.78
2017-01-30T05:49:12.014Z,95.74
2017-01-30T05:49:40.528Z,95.88
2017-01-30T05:50:09.071Z,95.83
2017-01-30T05:50:37.701Z,95.83
2017-01-30T05:51:06.225Z,95.54
2017-01-30T05:51:34.751Z,95.25
2017-01-30T05:52:03.379Z,95.64
2017-01-30T05:52:31.893Z,95.83
2017-01-30T05:53:00.531Z,95.93
2017-01-30T05:53:29.139Z,96.03
2017-01-30T05:53:57.740Z,95.83
2017-01-30T05:54:26.341Z,95.83
2017-01-30T05:54:54.972Z,96.41
2017-01-30T05:55:23.560Z,96.61
2017-01-30T05:55:52.166Z,96.03
2017-01-30T05:56:20.679Z,96.7
2017-01-30T05:56:49.197Z,96.12
2017-01-30T05:57:17.758Z,96.22
2017-01-30T05:57:46.372Z,96.12
2017-01-30T05:58:14.995Z,95.93
2017-01-30T05:58:43.593Z,95.83
2017-01-30T05:59:12.195Z,96.22
2017-01-30T05:59:40.827Z,96.12
2017-01-30T06:00:09.485Z,96.22
2017-01-30T06:00:37.990Z,96.61
2017-01-30T06:01:06.604Z,96.89
2017-01-30T06:01:35.332Z,96.61
2017-01-30T06:02:03.951Z,96.31
2017-01-30T06:02:32.461Z,96.51
2017-01-30T06:03:01.074Z,96.51
2017-01-30T06:03:29.492Z,96.51
2017-01-30T06:03:58.097Z,96.51
2017-01-30T06:04:26.711Z,96.51
2017-01-30T06:04:55.316Z,96.61
2017-01-30T06:05:23.836Z,96.61
2017-01-30T06:05:52.463Z,96.8
2017-01-30T06:06:21.089Z,96.61
2017-01-30T06:06:49.599Z,96.89
2017-01-30T06:07:18.240Z,96.22
2017-01-30T06:07:46.860Z,95.93
2017-01-30T06:08:15.484Z,96.22
2017-01-30T06:08:44.103Z,96.03
2017-01-30T06:09:12.705Z,96.22
2017-01-30T06:09:41.332Z,96.22